Time;durP1;ratioP1;P1;durP2;ratioP2;P2;SDS_P1;SDS_P2;PMS_P1;PMS_P2;Temp;Humidity;BMP_temperature;BMP_pressure;BME280_temperature;BME280_humidity;BME280_pressure;Samples;Min_cycle;Max_cycle;Signal;HPM_P1;HPM_P2
2022/07/15 00:02:03;;;;;;;17.30;10.73;;;;;;;21.13;68.72;99239.47;4994443;28;20227;-83
2022/07/15 00:04:29;;;;;;;33.77;18.90;;;;;;;21.06;69.12;99245.47;4994822;28;20167;-84
2022/07/15 00:06:54;;;;;;;22.57;13.80;;;;;;;18.75;68.62;98858.09;4992445;28;20644;-84
2022/07/15 00:09:20;;;;;;;15.73;8.30;;;;;;;19.89;68.35;99029.41;4994378;28;20163;-85
2022/07/15 00:11:45;;;;;;;13.13;7.50;;;;;;;17.98;68.72;98743.34;4994155;28;20164;-84
2022/07/15 00:14:11;;;;;;;13.00;8.53;;;;;;;20.27;68.59;99119.41;4994365;28;20174;-83
2022/07/15 00:16:36;;;;;;;10.43;7.63;;;;;;;19.23;68.81;98927.44;4993809;28;20167;-84
2022/07/15 00:19:02;;;;;;;12.67;7.03;;;;;;;18.25;68.63;98771.63;4994011;28;20695;-83
2022/07/15 00:21:27;;;;;;;13.80;10.50;;;;;;;18.98;68.87;98894.88;4993891;28;20166;-83
2022/07/15 00:23:53;;;;;;;33.07;24.43;;;;;;;17.63;69.30;98683.47;4993850;28;20640;-85
2022/07/15 00:26:18;;;;;;;19.37;13.73;;;;;;;20.32;71.03;99158.00;4994074;28;20194;-84
2022/07/15 00:28:44;;;;;;;11.03;8.50;;;;;;;18.96;73.33;98962.44;4994219;28;20241;-84
2022/07/15 00:31:09;;;;;;;9.77;7.77;;;;;;;18.05;74.62;98811.66;4993816;28;20587;-85
2022/07/15 00:33:35;;;;;;;11.60;7.37;;;;;;;19.31;78.89;99125.97;4994614;28;20168;-86
2022/07/15 00:36:00;;;;;;;9.20;6.83;;;;;;;18.89;79.67;99040.25;4994384;28;20182;-84
2022/07/15 00:38:25;;;;;;;14.33;7.37;;;;;;;20.01;79.46;99211.88;4993289;28;20233;-85
2022/07/15 00:40:51;;;;;;;9.80;7.10;;;;;;;20.17;79.08;99220.47;4992147;28;20668;-85
2022/07/15 00:43:17;;;;;;;7.80;7.00;;;;;;;18.18;78.06;98862.09;4995013;28;20171;-85
2022/07/15 00:45:43;;;;;;;9.33;7.10;;;;;;;19.67;77.61;99098.72;4993858;28;20163;-84
2022/07/15 00:48:09;;;;;;;12.60;7.17;;;;;;;19.23;79.41;99078.00;4992472;28;20171;-84
2022/07/15 00:50:34;;;;;;;9.30;6.80;;;;;;;20.09;78.64;99222.19;4993425;28;20932;-84
2022/07/15 00:53:07;;;;;;;11.03;6.87;;;;;;;20.21;77.67;99211.94;4993407;28;20175;-83
2022/07/15 00:55:37;;;;;;;11.00;7.00;;;;;;;20.27;77.28;99209.38;4993489;28;20191;-84
2022/07/15 00:58:04;;;;;;;10.93;6.97;;;;;;;20.03;78.46;99209.28;4993268;28;20195;-85
2022/07/15 01:00:31;;;;;;;11.50;6.87;;;;;;;17.81;78.53;98860.19;4993587;28;20187;-82
2022/07/15 01:02:58;;;;;;;8.17;7.07;;;;;;;19.86;79.30;99204.09;4992089;28;20231;-85
2022/07/15 01:05:25;;;;;;;7.63;6.80;;;;;;;19.21;79.24;99075.44;4993102;28;20160;-84
2022/07/15 01:07:51;;;;;;;8.03;7.07;;;;;;;17.85;78.61;98835.47;4975871;28;20634;-84
2022/07/15 01:10:18;;;;;;;9.23;6.67;;;;;;;19.97;78.90;99201.56;4993369;28;20252;-83
2022/07/15 01:12:46;;;;;;;10.60;7.20;;;;;;;16.54;78.67;98636.72;4993348;28;20174;-84
2022/07/15 01:15:12;;;;;;;10.13;6.80;;;;;;;16.79;78.70;98676.09;4993753;28;20227;-84
2022/07/15 01:17:37;;;;;;;9.47;6.80;;;;;;;16.93;82.30;98758.88;4992820;28;20175;-84
2022/07/15 01:20:03;;;;;;;9.07;7.50;;;;;;;19.63;84.29;99205.75;4992936;28;20282;-84
2022/07/15 01:22:28;;;;;;;11.63;6.90;;;;;;;16.87;84.48;98725.59;4993060;28;20168;-84
2022/07/15 01:24:54;;;;;;;11.10;7.47;;;;;;;16.68;87.77;98724.59;4990973;28;20171;-84
2022/07/15 01:27:20;;;;;;;10.33;7.87;;;;;;;18.64;89.32;99052.06;4973830;28;20160;-84
2022/07/15 01:29:46;;;;;;;11.40;7.97;;;;;;;16.50;88.53;98673.31;4973566;28;20525;-84
2022/07/15 01:32:11;;;;;;;10.20;7.50;;;;;;;19.33;88.22;99143.94;4974125;28;20190;-85
2022/07/15 01:34:37;;;;;;;11.00;6.87;;;;;;;19.60;87.76;99182.63;4973964;28;20168;-85
2022/07/15 01:37:02;;;;;;;9.33;6.73;;;;;;;17.33;87.30;98803.53;4973611;28;20160;-83
2022/07/15 01:39:28;;;;;;;11.37;7.80;;;;;;;19.48;89.48;99184.25;4973928;28;20199;-84
2022/07/15 01:41:54;;;;;;;10.40;8.20;;;;;;;19.39;91.55;99197.94;4973786;28;20172;-84
2022/07/15 01:44:19;;;;;;;11.17;8.40;;;;;;;18.46;94.08;99059.63;4973476;28;20695;-83
2022/07/15 01:46:44;;;;;;;12.83;8.23;;;;;;;17.56;93.30;98910.38;4973083;28;20191;-84
2022/07/15 01:49:23;;;;;;;11.97;8.23;;;;;;;16.77;96.26;98806.47;4973350;28;20168;-84
2022/07/15 01:51:50;;;;;;;9.97;8.50;;;;;;;18.11;100.00;99088.38;4973398;28;20168;-83
2022/07/15 01:54:16;;;;;;;13.70;8.07;;;;;;;18.32;100.00;99094.53;4973027;28;20168;-83
2022/07/15 01:56:41;;;;;;;13.20;7.90;;;;;;;15.94;100.00;98737.44;4973318;28;20596;-84
2022/07/15 01:59:06;;;;;;;13.80;8.17;;;;;;;18.41;100.00;99139.03;4973191;28;20228;-84
2022/07/15 02:01:32;;;;;;;12.80;8.07;;;;;;;18.96;100.00;99199.31;4973246;28;20251;-84
2022/07/15 02:03:58;;;;;;;13.17;9.20;;;;;;;19.04;98.90;99202.81;4956062;28;20180;-84
2022/07/15 02:06:23;;;;;;;16.47;9.17;;;;;;;17.71;97.42;98970.22;4973145;28;20183;-84
2022/07/15 02:08:48;;;;;;;14.97;9.10;;;;;;;18.29;96.28;99085.97;4972913;28;20173;-84
2022/07/15 02:11:14;;;;;;;11.47;8.40;;;;;;;18.40;96.64;99078.38;4973340;28;20168;-85
2022/07/15 02:13:40;;;;;;;9.70;7.50;;;;;;;16.28;96.63;98732.69;4973925;28;20230;-84
2022/07/15 02:16:05;;;;;;;12.83;7.87;;;;;;;18.27;95.48;99058.59;4956140;28;20183;-84
2022/07/15 02:18:31;;;;;;;11.00;7.87;;;;;;;19.16;95.84;99209.72;4973576;28;20172;-85
2022/07/15 02:20:56;;;;;;;15.03;8.60;;;;;;;17.91;99.92;99055.78;4973300;28;20196;-85
2022/07/15 02:23:23;;;;;;;10.50;7.80;;;;;;;18.38;99.33;99131.31;4973129;28;20172;-84
2022/07/15 02:25:49;;;;;;;11.73;7.77;;;;;;;16.48;98.28;98792.53;4955695;28;20199;-85
2022/07/15 02:28:15;;;;;;;9.27;7.47;;;;;;;17.36;96.56;98945.13;4973037;28;20194;-85
2022/07/15 02:30:42;;;;;;;9.37;7.40;;;;;;;18.97;97.11;99210.44;4974621;28;20180;-84
2022/07/15 02:33:08;;;;;;;9.73;7.13;;;;;;;18.94;97.57;99206.16;4977307;28;20268;-84
2022/07/15 02:35:34;;;;;;;10.33;6.93;;;;;;;16.84;97.52;98849.13;4977719;28;20172;-84
2022/07/15 02:38:00;;;;;;;10.07;7.10;;;;;;;18.32;97.76;99099.69;4976485;28;20658;-84
2022/07/15 02:40:26;;;;;;;8.10;7.00;;;;;;;17.56;99.07;98997.41;4975789;28;20662;-84
2022/07/15 02:42:54;;;;;;;11.13;7.17;;;;;;;18.14;98.13;99064.50;4977378;28;20168;-84
2022/07/15 02:45:21;;;;;;;10.27;6.90;;;;;;;17.80;97.97;98996.75;4977513;28;20160;-84
2022/07/15 02:47:47;;;;;;;9.97;7.80;;;;;;;18.96;99.36;99217.28;4977437;28;20171;-84
2022/07/15 02:50:14;;;;;;;12.17;7.90;;;;;;;18.82;100.00;99217.19;4976535;28;20168;-85
2022/07/15 02:52:40;;;;;;;10.03;8.00;;;;;;;18.33;100.00;99135.56;4985322;28;20186;-85
2022/07/15 02:55:07;;;;;;;9.33;7.23;;;;;;;18.83;99.72;99208.66;4995629;28;20171;-84
2022/07/15 02:57:32;;;;;;;9.27;7.43;;;;;;;16.81;99.50;98869.56;4995401;28;20170;-84
2022/07/15 02:59:58;;;;;;;11.10;7.33;;;;;;;18.19;100.00;99166.19;4995423;28;20196;-83
2022/07/15 03:02:24;;;;;;;9.80;7.60;;;;;;;16.65;100.00;98928.16;4994666;28;20293;-84
2022/07/15 03:04:49;;;;;;;9.27;7.50;;;;;;;16.69;100.00;98905.22;4995116;28;20183;-84
2022/07/15 03:07:15;;;;;;;12.60;8.00;;;;;;;18.51;100.00;99212.66;4995689;28;20262;-84
2022/07/15 03:09:40;;;;;;;12.30;7.50;;;;;;;18.17;99.65;99141.38;4994690;28;20222;-84
2022/07/15 03:12:09;;;;;;;10.70;6.70;;;;;;;18.72;98.05;99204.28;4989458;28;20216;-86
2022/07/15 03:14:34;;;;;;;9.07;6.90;;;;;;;18.63;96.23;99193.94;4995240;28;20175;-86
2022/07/15 03:17:00;;;;;;;10.70;6.63;;;;;;;16.96;96.29;98902.97;4994446;28;20176;-85
2022/07/15 03:19:25;;;;;;;9.97;7.03;;;;;;;16.86;94.60;98873.03;4994464;28;20581;-86
2022/07/15 03:21:51;;;;;;;10.50;6.47;;;;;;;17.95;95.55;99076.28;4978816;28;20179;-86
2022/07/15 03:24:16;;;;;;;11.57;7.00;;;;;;;15.91;93.45;98731.44;4996532;28;20164;-86
2022/07/15 03:26:43;;;;;;;9.63;6.80;;;;;;;18.67;94.79;99198.25;4996770;28;20175;-86
2022/07/15 03:29:09;;;;;;;9.07;5.70;;;;;;;18.52;86.67;99206.66;4996487;28;20167;-86
2022/07/15 03:31:34;;;;;;;8.60;6.40;;;;;;;17.09;86.87;98955.09;4996974;28;20207;-87
2022/07/15 03:34:00;;;;;;;11.17;6.27;;;;;;;17.09;87.04;98958.50;4996300;28;20222;-85
2022/07/15 03:36:25;;;;;;;8.77;6.43;;;;;;;16.91;89.52;98981.34;4996215;28;20203;-85
2022/07/15 03:38:51;;;;;;;7.33;6.43;;;;;;;16.24;91.27;98843.31;4996198;28;20167;-87
2022/07/15 03:41:21;;;;;;;11.53;6.97;;;;;;;14.57;97.33;98600.41;4993756;28;20609;-85
2022/07/15 03:43:47;;;;;;;12.50;7.70;;;;;;;18.10;100.00;99204.50;4995751;28;20164;-87
2022/07/15 03:46:15;;;;;;;10.23;7.67;;;;;;;15.74;100.00;98779.72;4995035;28;20171;-86
2022/07/15 03:48:41;;;;;;;9.17;7.30;;;;;;;18.25;100.00;99189.31;4996223;28;20601;-87
2022/07/15 03:51:06;;;;;;;8.60;7.50;;;;;;;15.94;100.00;98816.56;4996366;28;20187;-87
2022/07/15 03:53:32;;;;;;;11.43;8.03;;;;;;;15.81;100.00;98786.63;4995279;28;20186;-87
2022/07/15 03:55:57;;;;;;;10.13;7.70;;;;;;;17.67;100.00;99077.72;4993791;28;20181;-85
2022/07/15 03:58:23;;;;;;;8.70;7.10;;;;;;;17.91;100.00;99095.03;4992839;28;20585;-83
2022/07/15 04:00:49;;;;;;;9.83;7.50;;;;;;;16.93;100.00;98887.59;4977718;28;20203;-86
2022/07/15 04:03:16;;;;;;;11.00;7.53;;;;;;;17.43;100.00;98975.06;4994701;28;20231;-85
2022/07/15 04:05:42;;;;;;;10.57;7.10;;;;;;;17.43;95.72;98943.50;4978158;28;20175;-85
2022/07/15 04:08:07;;;;;;;9.87;6.53;;;;;;;18.38;92.65;99089.44;4995396;28;20175;-85
2022/07/15 04:10:32;;;;;;;10.23;6.40;;;;;;;15.85;85.81;98630.13;4995693;28;20195;-85
2022/07/15 04:12:58;;;;;;;11.77;6.57;;;;;;;17.50;86.74;98909.44;4994875;28;20714;-85
2022/07/15 04:15:24;;;;;;;15.80;6.97;;;;;;;19.45;84.33;99197.94;4978160;28;20171;-87
2022/07/15 04:17:49;;;;;;;15.03;6.70;;;;;;;17.44;83.40;98873.56;4996015;28;20246;-86
2022/07/15 04:20:14;;;;;;;8.93;6.60;;;;;;;16.97;83.80;98804.97;4977733;28;20298;-84
2022/07/15 04:22:44;;;;;;;12.47;7.30;;;;;;;19.20;82.40;99157.59;4995482;28;20749;-86
2022/07/15 04:25:11;;;;;;;10.50;7.20;;;;;;;16.78;81.34;98725.53;4994931;28;20178;-86
2022/07/15 04:27:40;;;;;;;12.67;7.33;;;;;;;17.59;79.61;98818.25;4994847;28;20172;-85
2022/07/15 04:30:06;;;;;;;13.23;7.60;;;;;;;17.29;78.71;98759.16;4996647;28;20179;-85
2022/07/15 04:32:32;;;;;;;9.97;7.07;;;;;;;17.90;78.31;98855.16;5000590;28;20198;-86
2022/07/15 04:34:57;;;;;;;13.47;6.90;;;;;;;17.46;77.79;98779.75;4999648;28;20172;-86
2022/07/15 04:37:23;;;;;;;11.53;7.17;;;;;;;17.25;79.13;98800.06;4985492;28;20180;-86
2022/07/15 04:39:48;;;;;;;8.50;6.90;;;;;;;18.71;78.93;99043.56;4975635;28;20242;-86
2022/07/15 04:42:14;;;;;;;9.27;7.00;;;;;;;18.84;78.38;99046.19;4975378;28;20200;-84
2022/07/15 04:44:39;;;;;;;8.93;6.60;;;;;;;16.08;79.99;98662.69;4976250;28;20172;-86
2022/07/15 04:47:05;;;;;;;10.90;6.97;;;;;;;19.26;78.54;99137.06;4975762;28;20176;-85
2022/07/15 04:52:16;;;;;;;12.33;6.83;;;;;;;19.93;76.19;99192.16;4975803;28;20207;-87
2022/07/15 04:54:42;;;;;;;9.53;6.57;;;;;;;19.96;74.79;99153.63;4975663;28;20164;-86
2022/07/15 04:57:07;;;;;;;8.67;6.57;;;;;;;18.88;73.92;98941.91;4958720;28;20172;-86
2022/07/15 04:59:33;;;;;;;9.17;6.80;;;;;;;17.93;71.86;98736.50;4975234;28;20627;-86
2022/07/15 05:01:59;;;;;;;9.73;6.63;;;;;;;19.14;70.46;98917.19;4974610;28;20228;-85
2022/07/15 05:04:24;;;;;;;8.40;6.07;;;;;;;19.80;70.33;99046.53;4979697;28;20275;-86
2022/07/15 05:06:50;;;;;;;12.43;6.20;;;;;;;20.27;70.36;99119.41;4996567;28;20187;-84
2022/07/15 05:09:16;;;;;;;13.40;6.17;;;;;;;18.48;69.85;98829.81;4975509;28;20621;-85
2022/07/15 05:11:41;;;;;;;12.57;6.10;;;;;;;18.76;68.97;98814.47;4992360;28;20175;-85
2022/07/15 05:14:06;;;;;;;12.10;6.00;;;;;;;17.75;66.25;98590.47;4993320;28;20167;-84
2022/07/15 05:16:32;;;;;;;7.90;6.10;;;;;;;18.64;67.01;98764.91;4993327;28;20171;-84
2022/07/15 05:18:58;;;;;;;10.00;5.60;;;;;;;21.66;64.74;99217.03;4993920;28;20178;-86
2022/07/15 05:21:23;;;;;;;10.53;5.93;;;;;;;21.14;63.49;99084.16;4993787;28;20210;-86
2022/07/15 05:23:49;;;;;;;9.30;5.70;;;;;;;19.12;63.69;98753.78;4992273;28;20214;-84
2022/07/15 05:26:14;;;;;;;8.80;5.20;;;;;;;22.19;62.45;99206.50;4976243;28;20171;-85
2022/07/15 05:28:40;;;;;;;6.67;5.80;;;;;;;20.68;60.10;98946.19;4992569;28;20186;-85
2022/07/15 05:31:12;;;;;;;7.43;5.60;;;;;;;20.75;58.93;99000.19;4991218;28;20579;-86
2022/07/15 05:33:38;;;;;;;10.07;5.00;;;;;;;22.37;58.61;99208.09;4992522;28;20164;-86
2022/07/15 05:36:04;;;;;;;10.10;4.73;;;;;;;19.99;57.03;98766.47;4992716;28;20552;-86
2022/07/15 05:38:30;;;;;;;7.63;5.00;;;;;;;19.91;58.28;98759.66;4992780;28;20167;-87
2022/07/15 05:40:56;;;;;;;12.23;5.30;;;;;;;21.81;57.19;99040.84;4992514;28;20270;-87
2022/07/15 05:43:21;;;;;;;7.20;4.87;;;;;;;22.98;56.24;99186.97;4992797;28;20164;-87
2022/07/15 05:45:47;;;;;;;8.67;5.07;;;;;;;20.59;55.49;98731.03;4992249;28;20164;-87
2022/07/15 05:48:12;;;;;;;7.73;4.70;;;;;;;20.69;55.71;98796.09;4994636;28;20167;-86
2022/07/15 05:50:38;;;;;;;6.40;5.00;;;;;;;22.22;55.17;99074.09;4975525;28;20716;-87
2022/07/15 05:53:03;;;;;;;8.53;4.83;;;;;;;22.63;54.51;99099.53;4992627;28;20172;-86
2022/07/15 05:55:29;;;;;;;7.37;4.73;;;;;;;20.75;54.83;98886.13;4993008;28;20171;-86
2022/07/15 05:57:54;;;;;;;9.30;4.70;;;;;;;23.29;53.33;99217.66;4974647;28;20188;-86
2022/07/15 06:00:20;;;;;;;5.93;4.80;;;;;;;22.28;52.59;98996.63;4992440;28;20202;-85
2022/07/15 06:02:45;;;;;;;9.30;5.17;;;;;;;22.39;51.78;98971.59;4989214;28;20227;-86
2022/07/15 06:05:11;;;;;;;8.83;5.10;;;;;;;22.84;51.57;99008.97;4975373;28;20559;-86
2022/07/15 06:07:37;;;;;;;6.13;4.97;;;;;;;22.06;51.81;98876.53;4989430;28;20640;-86
2022/07/15 06:10:04;;;;;;;8.30;5.27;;;;;;;23.47;53.17;99208.88;4996327;28;20261;-85
2022/07/15 06:12:30;;;;;;;6.17;5.10;;;;;;;23.70;52.48;99206.91;4978899;28;20266;-86
2022/07/15 06:14:55;;;;;;;8.73;5.00;;;;;;;21.47;51.63;98798.09;4995456;28;20286;-86
2022/07/15 06:17:21;;;;;;;5.87;5.27;;;;;;;23.75;52.67;99204.25;4978097;28;20629;-87
2022/07/15 06:19:46;;;;;;;10.10;5.40;;;;;;;23.30;52.30;99092.78;4994353;28;20191;-90
2022/07/15 06:22:12;;;;;;;9.33;5.13;;;;;;;23.19;50.91;98993.03;4995801;28;20174;-87
2022/07/15 06:24:37;;;;;;;6.93;5.27;;;;;;;23.03;50.31;98899.44;4996011;28;20178;-86
2022/07/15 06:27:03;;;;;;;6.97;4.93;;;;;;;24.84;49.71;99177.66;4978243;28;20254;-86
2022/07/15 06:29:28;;;;;;;9.03;5.47;;;;;;;22.39;49.65;98713.66;4995809;28;20168;-86
2022/07/15 06:31:54;;;;;;;7.87;5.50;;;;;;;23.58;48.25;98871.03;4978282;28;20183;-86
2022/07/15 06:34:19;;;;;;;8.03;5.10;;;;;;;24.47;47.87;98995.34;4995415;28;20178;-86
2022/07/15 06:36:44;;;;;;;9.57;5.30;;;;;;;24.56;49.06;99080.59;4995923;28;20175;-87
2022/07/15 06:39:11;;;;;;;7.17;5.20;;;;;;;23.19;49.62;98900.06;5000380;28;20195;-87
2022/07/15 06:41:37;;;;;;;8.93;5.60;;;;;;;25.16;49.21;99190.88;4995685;28;20182;-86
2022/07/15 06:44:04;;;;;;;8.87;5.10;;;;;;;24.44;47.67;98947.09;4977976;28;20167;-86
2022/07/15 06:46:29;;;;;;;9.10;5.10;;;;;;;24.45;47.18;98991.91;4995625;28;20164;-86
2022/07/15 06:48:55;;;;;;;9.17;5.50;;;;;;;26.08;46.17;99190.78;4995851;28;20566;-85
2022/07/15 06:51:20;;;;;;;10.37;5.47;;;;;;;25.30;46.26;99042.06;5004947;28;20228;-86
2022/07/15 06:53:45;;;;;;;8.20;6.13;;;;;;;24.31;45.98;98847.28;4999116;28;20167;-85
2022/07/15 06:56:12;;;;;;;11.20;8.00;;;;;;;26.47;45.20;99194.25;4986091;28;20175;-88
2022/07/15 06:58:38;;;;;;;11.97;6.53;;;;;;;25.46;46.59;99184.28;4999149;28;20159;-86
2022/07/15 07:01:04;;;;;;;6.43;4.90;;;;;;;23.19;46.63;98776.94;4981550;28;20563;-86
2022/07/15 07:03:29;;;;;;;7.43;5.17;;;;;;;24.80;47.56;99048.28;4978055;28;20181;-86
2022/07/15 07:05:55;;;;;;;9.37;5.40;;;;;;;23.88;45.99;98802.44;4995070;28;20580;-85
2022/07/15 07:08:20;;;;;;;10.00;5.40;;;;;;;25.99;45.02;99066.44;4995610;28;20179;-86
2022/07/15 07:10:46;;;;;;;8.57;5.00;;;;;;;24.53;44.45;98786.41;4995423;28;20171;-85
2022/07/15 07:13:12;;;;;;;5.47;4.70;;;;;;;26.34;45.31;99180.69;4995260;28;20168;-87
2022/07/15 07:15:38;;;;;;;7.17;5.33;;;;;;;22.74;45.88;98631.41;4994736;28;20167;-86
2022/07/15 07:18:03;;;;;;;5.87;5.00;;;;;;;26.22;45.54;99079.75;4995071;28;20654;-87
2022/07/15 07:20:29;;;;;;;8.57;5.20;;;;;;;25.28;44.64;98849.47;4994649;28;20195;-86
2022/07/15 07:22:54;;;;;;;6.18;5.00;;;;;;;26.62;44.16;99074.38;4978096;28;20263;-87
2022/07/15 07:25:20;;;;;;;7.87;5.10;;;;;;;26.72;43.69;99085.41;4995323;28;20175;-86
2022/07/15 07:27:45;;;;;;;9.23;5.20;;;;;;;26.00;42.76;98880.50;4994494;28;20683;-87
2022/07/15 07:30:11;;;;;;;5.82;5.20;;;;;;;25.30;42.52;98842.53;4994574;28;20652;-86
2022/07/15 07:32:36;;;;;;;7.68;5.00;;;;;;;27.54;42.83;99177.63;4994468;28;20177;-87
2022/07/15 07:35:02;;;;;;;6.43;4.80;;;;;;;25.59;42.83;98863.41;4994810;28;20177;-86
2022/07/15 07:37:27;;;;;;;6.60;4.72;;;;;;;27.22;42.41;99087.47;4994352;28;20176;-88
2022/07/15 07:39:53;;;;;;;6.00;5.05;;;;;;;27.97;42.45;99182.44;4994649;28;20196;-87
2022/07/15 07:42:19;;;;;;;8.65;5.30;;;;;;;28.03;41.50;99148.44;4994526;28;20546;-87
2022/07/15 07:44:44;;;;;;;6.30;4.85;;;;;;;25.87;40.79;98759.81;4977344;28;20250;-86
2022/07/15 07:47:10;;;;;;;6.10;4.82;;;;;;;28.02;41.15;99181.41;4996078;28;20585;-85
2022/07/15 07:49:35;;;;;;;7.85;4.63;;;;;;;26.58;40.14;98802.72;4999033;28;20175;-86
2022/07/15 07:52:02;;;;;;;9.13;4.68;;;;;;;27.42;39.51;98910.97;5000496;28;20205;-85
2022/07/15 07:54:29;;;;;;;5.35;4.00;;;;;;;29.15;37.31;99179.47;4980948;28;20200;-89
2022/07/15 07:56:55;;;;;;;6.10;4.13;;;;;;;28.32;37.56;98980.88;4994435;28;20174;-87
2022/07/15 07:59:20;;;;;;;8.93;4.38;;;;;;;28.68;36.69;98993.47;4994278;28;20166;-86
2022/07/15 08:01:46;;;;;;;5.82;4.00;;;;;;;28.27;37.10;98965.41;4993987;28;20232;-86
2022/07/15 08:04:13;;;;;;;6.10;4.10;;;;;;;27.16;37.34;98882.34;4994287;28;20204;-87
2022/07/15 08:06:39;;;;;;;6.78;4.30;;;;;;;29.14;37.41;99114.34;4994217;28;20535;-86
2022/07/15 08:09:06;;;;;;;6.95;4.10;;;;;;;27.56;38.03;98923.53;4993630;28;20548;-86
2022/07/15 08:11:31;;;;;;;6.20;3.90;;;;;;;27.67;36.54;98822.59;4993846;28;20258;-86
2022/07/15 08:13:57;;;;;;;5.75;4.28;;;;;;;27.52;36.55;98805.75;4993723;28;20691;-86
2022/07/15 08:16:22;;;;;;;5.20;4.10;;;;;;;27.21;37.20;98797.25;4993701;28;20209;-87
2022/07/15 08:18:48;;;;;;;4.22;3.80;;;;;;;26.56;37.25;98690.25;4993849;28;20200;-83
2022/07/15 08:21:17;;;;;;;6.95;4.10;;;;;;;26.20;37.95;98749.34;4993343;28;20223;-88
2022/07/15 08:23:42;;;;;;;6.13;4.00;;;;;;;28.80;36.56;99020.00;4993531;28;20170;-89
2022/07/15 08:26:10;;;;;;;10.38;3.72;;;;;;;28.98;35.59;98954.16;4993120;28;20253;-88
2022/07/15 08:28:36;;;;;;;5.55;3.85;;;;;;;28.73;34.71;98852.63;4993105;28;20234;-86
2022/07/15 08:31:02;;;;;;;7.28;3.50;;;;;;;28.35;33.95;98819.31;4993607;28;20601;-86
2022/07/15 08:33:27;;;;;;;8.48;3.75;;;;;;;28.54;33.62;98867.22;4993617;28;20167;-87
2022/07/15 08:35:53;;;;;;;4.22;3.75;;;;;;;30.19;33.74;99079.88;4994013;28;20176;-87
2022/07/15 08:38:19;;;;;;;6.70;3.50;;;;;;;31.20;32.56;99168.88;4993928;28;20163;-86
2022/07/15 08:40:44;;;;;;;5.00;3.65;;;;;;;31.03;32.36;99098.13;4993170;28;20260;-86
2022/07/15 08:43:11;;;;;;;4.38;3.78;;;;;;;31.95;32.24;99159.31;4993562;28;20244;-85
2022/07/15 08:45:38;;;;;;;5.78;3.30;;;;;;;30.86;32.59;99070.91;4993533;28;20178;-87
2022/07/15 08:48:05;;;;;;;4.10;3.70;;;;;;;30.77;34.10;99160.19;4993379;28;20212;-86
2022/07/15 08:50:31;;;;;;;4.55;3.55;;;;;;;29.28;34.31;98960.00;4993576;28;20176;-85
2022/07/15 08:52:57;;;;;;;5.15;3.78;;;;;;;30.51;34.21;99149.13;4993422;28;20174;-86
2022/07/15 08:55:23;;;;;;;7.80;3.70;;;;;;;29.16;34.60;98894.34;4998233;28;20575;-86
2022/07/15 08:57:51;;;;;;;3.95;3.53;;;;;;;29.37;34.17;98921.34;4975618;28;20179;-88
2022/07/15 09:00:17;;;;;;;7.82;3.60;;;;;;;30.56;34.92;99153.25;4993439;28;20205;-86
2022/07/15 09:02:43;;;;;;;6.80;3.38;;;;;;;31.24;33.44;99139.88;4993258;28;20231;-87
2022/07/15 09:05:18;;;;;;;4.82;3.75;;;;;;;31.68;33.06;99139.66;4992644;28;20651;-87
2022/07/15 09:08:06;;;;;;;4.10;3.70;;;;;;;31.46;33.24;99134.53;4992783;28;20263;-91
2022/07/15 09:10:43;;;;;;;8.20;3.65;;;;;;;31.52;32.88;99136.91;4993428;28;20235;-85
2022/07/15 09:13:22;;;;;;;5.00;3.50;;;;;;;31.26;32.90;99048.25;4992553;28;20165;-88
2022/07/15 09:15:49;;;;;;;4.10;3.70;;;;;;;30.85;33.12;98992.53;4992898;28;20606;-88
2022/07/15 09:18:17;;;;;;;7.15;3.60;;;;;;;32.12;32.66;99138.47;4991495;28;20196;-87
2022/07/15 09:20:44;;;;;;;3.88;3.40;;;;;;;30.19;32.87;98886.63;4992733;28;20588;-87
2022/07/15 09:23:17;;;;;;;4.82;3.65;;;;;;;30.84;32.52;98865.34;4992479;28;20192;-87
2022/07/15 09:25:43;;;;;;;5.38;3.50;;;;;;;30.51;32.30;98708.38;4992672;28;20212;-87
2022/07/15 09:28:09;;;;;;;4.43;3.50;;;;;;;30.94;31.20;98791.66;4992825;28;20178;-87
2022/07/15 09:33:36;;;;;;;3.70;3.40;;;;;;;32.27;30.64;99014.56;4993184;28;20236;-89
2022/07/15 09:36:05;;;;;;;4.50;3.60;;;;;;;32.94;31.10;99126.50;4990715;28;20175;-87
2022/07/15 09:38:55;;;;;;;5.10;3.47;;;;;;;31.98;31.08;99060.50;4994065;28;20181;-88
2022/07/15 09:41:27;;;;;;;7.50;3.40;;;;;;;32.33;31.27;99123.47;4899145;29;20631;-87
2022/07/15 09:44:13;;;;;;;4.32;3.55;;;;;;;31.26;30.54;98939.19;4898478;29;20779;-85
2022/07/15 09:46:57;;;;;;;3.78;3.10;;;;;;;31.75;30.90;99115.75;4898396;29;20243;-88
2022/07/15 09:49:22;;;;;;;5.80;3.08;;;;;;;31.67;31.07;99111.81;4898816;29;20181;-87
2022/07/15 09:51:50;;;;;;;4.63;3.33;;;;;;;31.80;30.01;99002.94;4898695;29;20321;-91
2022/07/15 09:54:17;;;;;;;9.00;2.95;;;;;;;31.17;28.83;98813.25;4898946;29;20242;-87
2022/07/15 09:56:45;;;;;;;5.22;2.70;;;;;;;33.21;27.77;99112.81;4882529;29;20263;-87
2022/07/15 09:59:11;;;;;;;4.82;2.33;;;;;;;32.16;27.32;98979.34;4898052;29;20258;-89
2022/07/15 10:01:37;;;;;;;3.30;2.30;;;;;;;30.05;27.29;98690.53;4897936;29;20347;-89
2022/07/15 10:04:06;;;;;;;4.20;3.00;;;;;;;32.72;28.63;99097.91;4897993;29;20186;-86
2022/07/15 10:06:35;;;;;;;3.85;3.00;;;;;;;32.16;29.58;99105.97;4897862;29;20253;-87
2022/07/15 10:09:01;;;;;;;4.93;3.08;;;;;;;31.05;29.42;98834.75;4897915;29;20182;-88
2022/07/15 10:11:28;;;;;;;4.57;2.95;;;;;;;30.99;29.19;98824.59;4897935;29;20182;-88
2022/07/15 10:14:22;;;;;;;6.38;2.90;;;;;;;32.09;28.81;98984.88;4898421;29;20234;-88
2022/07/15 10:16:55;;;;;;;6.43;3.30;;;;;;;33.03;28.68;99100.66;4898334;29;20174;-88
2022/07/15 10:19:36;;;;;;;8.50;3.00;;;;;;;33.10;28.03;99094.16;4989119;28;20183;-88
2022/07/15 10:22:20;;;;;;;4.85;3.10;;;;;;;32.21;27.96;98966.84;4994605;28;20230;-87
2022/07/15 10:24:48;;;;;;;4.15;2.70;;;;;;;33.08;28.21;99085.53;4996093;28;20632;-86
2022/07/15 10:27:32;;;;;;;3.45;2.95;;;;;;;32.80;28.74;99087.03;4995714;28;20222;-88
2022/07/15 10:30:03;;;;;;;4.53;2.90;;;;;;;32.98;28.17;99086.94;4995829;28;20193;-87
2022/07/15 10:32:29;;;;;;;3.47;3.05;;;;;;;31.29;28.32;98839.63;4996191;28;20167;-87
2022/07/15 10:34:54;;;;;;;4.95;3.17;;;;;;;31.35;28.92;98857.66;4996283;28;20182;-90
2022/07/15 10:37:20;;;;;;;6.13;3.00;;;;;;;31.51;28.25;98818.50;4997995;28;20168;-88
2022/07/15 10:40:03;;;;;;;3.42;3.13;;;;;;;32.80;28.33;98956.72;4995854;28;20210;-87
2022/07/15 10:43:01;;;;;;;6.45;3.38;;;;;;;33.14;28.27;99024.88;4978442;28;20168;-88
2022/07/15 10:45:27;;;;;;;8.05;3.40;;;;;;;33.50;28.14;99071.91;4995750;28;20172;-86
2022/07/15 10:48:30;;;;;;;7.88;3.20;;;;;;;33.64;27.81;99068.53;4996068;28;20168;-86
2022/07/15 10:50:56;;;;;;;6.32;3.10;;;;;;;32.31;27.96;98823.94;4994661;28;20159;-84
2022/07/15 10:53:24;;;;;;;3.90;3.30;;;;;;;31.95;28.09;98776.94;4995944;28;20175;-87
2022/07/15 10:55:50;;;;;;;6.57;3.20;;;;;;;33.67;28.26;99068.38;4989820;28;20164;-86
2022/07/15 10:58:19;;;;;;;5.13;2.92;;;;;;;33.69;27.62;99058.63;5019869;28;20175;-87
2022/07/15 11:00:46;;;;;;;5.57;3.20;;;;;;;33.58;27.25;99055.75;5008653;28;20206;-88
2022/07/15 11:03:13;;;;;;;9.15;3.53;;;;;;;33.27;28.05;99055.72;4987094;28;20227;-88
2022/07/15 11:06:01;;;;;;;7.18;3.00;;;;;;;32.05;28.58;98873.34;4997546;28;20163;-85
2022/07/15 11:08:36;;;;;;;7.85;3.25;;;;;;;32.65;28.53;99051.97;4978608;28;20627;-87
2022/07/15 11:11:13;;;;;;;4.25;2.90;;;;;;;32.94;28.67;99042.56;4995520;28;20181;-85
2022/07/15 11:13:39;;;;;;;5.25;3.13;;;;;;;33.01;28.35;99044.78;5002477;28;20226;-87
2022/07/15 11:16:09;;;;;;;5.65;2.83;;;;;;;32.85;28.49;99020.31;5002229;28;20633;-87
2022/07/15 11:18:48;;;;;;;4.55;3.00;;;;;;;32.20;27.95;98878.69;4998016;28;20171;-88
2022/07/15 11:21:16;;;;;;;4.55;2.90;;;;;;;32.92;27.61;99040.03;4995621;28;20191;-87
2022/07/15 11:23:45;;;;;;;3.67;2.80;;;;;;;32.81;27.83;99031.88;4995376;28;20565;-87
2022/07/15 11:26:11;;;;;;;3.28;2.70;;;;;;;30.88;27.46;98689.09;4977377;28;20271;-88
2022/07/15 11:28:36;;;;;;;4.55;2.95;;;;;;;31.89;27.37;98787.75;4995334;28;20217;-89
2022/07/15 11:31:02;;;;;;;3.00;2.70;;;;;;;31.37;26.59;98737.22;4997672;28;20183;-89
2022/07/15 11:33:30;;;;;;;2.95;2.65;;;;;;;31.78;26.59;98817.09;4993365;28;20179;-90
2022/07/15 11:36:02;;;;;;;3.47;2.70;;;;;;;33.38;26.27;99033.19;4977819;28;20640;-86